Time;durP1;ratioP1;P1;durP2;ratioP2;P2;SDS_P1;SDS_P2;PMS_P1;PMS_P2;Temp;Humidity;BMP_temperature;BMP_pressure;BME280_temperature;BME280_humidity;BME280_pressure;Samples;Min_cycle;Max_cycle;Signal;HPM_P1;HPM_P2
2024/03/05 00:00:21;;;;;;;1.00;0.85;;;8.30;99.90;;;;;;4265152;27;20501;-57
2024/03/05 00:02:23;;;;;;;0.85;0.20;;;8.30;99.90;;;;;;4265036;27;20049;-57
2024/03/05 00:04:26;;;;;;;0.32;0.32;;;8.30;99.90;;;;;;4268208;27;20047;-57
2024/03/05 00:06:29;;;;;;;0.30;0.30;;;8.30;99.90;;;;;;4268271;27;20456;-57
2024/03/05 00:08:31;;;;;;;0.35;0.30;;;8.30;99.90;;;;;;4268810;27;20038;-57
2024/03/05 00:10:33;;;;;;;6.72;0.20;;;8.30;99.90;;;;;;4268731;27;20462;-58
2024/03/05 00:12:35;;;;;;;0.60;0.47;;;8.30;99.90;;;;;;4268771;27;20056;-58
2024/03/05 00:14:39;;;;;;;2.72;1.20;;;8.30;99.90;;;;;;4268597;27;20155;-57
2024/03/05 00:16:41;;;;;;;0.40;0.32;;;8.30;99.90;;;;;;4268592;27;20125;-57
2024/03/05 00:18:43;;;;;;;0.57;0.52;;;8.30;99.90;;;;;;4268588;27;20477;-57
2024/03/05 00:20:45;;;;;;;0.80;0.17;;;8.30;99.90;;;;;;4268461;27;20042;-57
2024/03/05 00:22:47;;;;;;;0.30;0.20;;;8.30;99.90;;;;;;4268534;27;20039;-57
2024/03/05 00:24:50;;;;;;;0.75;0.30;;;8.30;99.90;;;;;;4268486;27;20443;-57
2024/03/05 00:26:52;;;;;;;0.28;0.20;;;8.30;99.90;;;;;;4268119;27;20043;-56
2024/03/05 00:28:56;;;;;;;3.25;0.43;;;8.30;99.90;;;;;;4268102;27;20134;-57
2024/03/05 00:30:59;;;;;;;0.47;0.47;;;8.30;99.90;;;;;;4268039;27;20538;-54
2024/03/05 00:33:02;;;;;;;0.47;0.35;;;8.30;99.90;;;;;;4268226;27;20038;-58
2024/03/05 00:35:05;;;;;;;0.50;0.47;;;8.30;99.90;;;;;;4267980;27;20053;-58
2024/03/05 00:37:07;;;;;;;0.20;0.20;;;8.30;99.90;;;;;;4267959;27;20099;-57
2024/03/05 00:39:09;;;;;;;0.57;0.57;;;8.30;99.90;;;;;;4268177;27;20051;-57
2024/03/05 00:41:12;;;;;;;0.43;0.35;;;8.30;99.90;;;;;;4268278;27;20043;-57
2024/03/05 00:43:15;;;;;;;0.68;0.45;;;8.30;99.90;;;;;;4268669;27;20074;-58
2024/03/05 00:45:17;;;;;;;0.40;0.30;;;8.30;99.90;;;;;;4268840;27;20107;-58
2024/03/05 00:47:21;;;;;;;0.63;0.40;;;8.30;99.90;;;;;;4251180;27;20039;-57
2024/03/05 00:49:23;;;;;;;1.48;0.90;;;8.20;99.90;;;;;;4268620;27;20046;-58
2024/03/05 00:51:25;;;;;;;0.80;0.60;;;8.20;99.90;;;;;;4268245;27;20038;-57
2024/03/05 00:53:27;;;;;;;0.45;0.20;;;8.20;99.90;;;;;;4268358;27;20046;-59
2024/03/05 00:55:29;;;;;;;0.45;0.20;;;8.20;99.90;;;;;;4267919;27;20078;-59
2024/03/05 00:57:31;;;;;;;0.15;0.10;;;8.30;99.90;;;;;;4267996;27;20043;-56
2024/03/05 00:59:33;;;;;;;0.52;0.40;;;8.20;99.90;;;;;;4268163;27;20129;-57
2024/03/05 01:01:35;;;;;;;0.55;0.20;;;8.20;99.90;;;;;;4249455;27;20126;-57
2024/03/05 01:03:39;;;;;;;0.05;0.05;;;8.20;99.90;;;;;;4267794;27;20069;-58
2024/03/05 01:05:42;;;;;;;0.20;0.20;;;8.20;99.90;;;;;;4267810;27;20117;-57
2024/03/05 01:07:44;;;;;;;0.20;0.17;;;8.10;99.90;;;;;;4267995;27;20062;-58
2024/03/05 01:09:48;;;;;;;0.10;0.10;;;8.10;99.90;;;;;;4267561;27;20061;-57
2024/03/05 01:11:52;;;;;;;0.15;0.15;;;8.10;99.90;;;;;;4267373;27;20069;-58
2024/03/05 01:13:54;;;;;;;0.52;0.30;;;8.20;99.90;;;;;;4267202;27;20130;-61
2024/03/05 01:15:57;;;;;;;0.45;0.30;;;8.10;99.90;;;;;;4266965;27;20481;-58
2024/03/05 01:17:59;;;;;;;0.70;0.30;;;8.10;99.90;;;;;;4267806;27;20047;-59
2024/03/05 01:20:03;;;;;;;0.25;0.20;;;8.10;99.90;;;;;;4267669;27;20054;-57
2024/03/05 01:22:06;;;;;;;0.73;0.52;;;8.10;99.90;;;;;;4267963;27;20046;-56
2024/03/05 01:24:11;;;;;;;0.10;0.10;;;8.10;99.90;;;;;;4267970;27;20047;-57
2024/03/05 01:26:13;;;;;;;0.35;0.30;;;8.20;99.90;;;;;;4267737;27;20047;-56
2024/03/05 01:28:15;;;;;;;0.10;0.10;;;8.20;99.90;;;;;;4267469;27;20046;-56
2024/03/05 01:30:17;;;;;;;0.77;0.70;;;8.20;99.90;;;;;;4267206;27;20054;-57
2024/03/05 01:32:19;;;;;;;1.23;0.70;;;8.20;99.90;;;;;;4267040;27;20049;-57
2024/03/05 01:34:22;;;;;;;0.52;0.30;;;8.10;99.90;;;;;;4267270;27;20043;-58
2024/03/05 01:36:25;;;;;;;0.20;0.20;;;8.10;99.90;;;;;;4267373;27;20087;-57
2024/03/05 01:38:28;;;;;;;0.40;0.20;;;8.10;99.90;;;;;;4267262;27;20039;-55
2024/03/05 01:40:30;;;;;;;0.28;0.28;;;8.10;99.90;;;;;;4267042;27;20292;-58
2024/03/05 01:42:32;;;;;;;0.05;0.05;;;8.10;99.90;;;;;;4267260;27;20439;-58
2024/03/05 01:44:34;;;;;;;0.90;0.47;;;8.10;99.90;;;;;;4267088;27;20070;-58
2024/03/05 01:46:36;;;;;;;0.20;0.20;;;8.10;99.90;;;;;;4267584;27;20481;-61
2024/03/05 01:48:38;;;;;;;0.35;0.28;;;8.10;99.90;;;;;;4267395;27;20043;-57
2024/03/05 01:50:41;;;;;;;0.32;0.17;;;8.10;99.90;;;;;;4267341;27;20046;-57
2024/03/05 01:52:44;;;;;;;0.80;0.40;;;8.20;99.90;;;;;;4267068;27;20049;-57
2024/03/05 01:54:47;;;;;;;0.15;0.15;;;8.10;99.90;;;;;;4267326;27;20043;-57
2024/03/05 01:56:54;;;;;;;0.20;0.20;;;8.10;99.90;;;;;;4267310;27;20054;-57
2024/03/05 01:58:56;;;;;;;0.10;0.10;;;8.10;99.90;;;;;;4267171;27;20042;-58
2024/03/05 02:00:59;;;;;;;0.75;0.75;;;8.10;99.90;;;;;;4267372;27;20053;-56
2024/03/05 02:03:01;;;;;;;0.65;0.22;;;8.10;99.90;;;;;;4267608;27;20039;-59
2024/03/05 02:05:03;;;;;;;0.57;0.52;;;8.20;99.90;;;;;;4248782;27;20134;-59
2024/03/05 02:07:11;;;;;;;0.20;0.20;;;8.10;99.90;;;;;;4267760;27;20038;-57
2024/03/05 02:09:15;;;;;;;0.30;0.25;;;8.10;99.90;;;;;;4267667;27;20038;-57
2024/03/05 02:11:17;;;;;;;0.43;0.43;;;8.10;99.90;;;;;;4267366;27;20134;-58
2024/03/05 02:13:20;;;;;;;0.20;0.20;;;8.10;99.90;;;;;;4267070;27;20053;-58
2024/03/05 02:15:27;;;;;;;0.08;0.08;;;8.10;99.90;;;;;;4266554;27;20057;-57
2024/03/05 02:17:29;;;;;;;0.22;0.22;;;8.10;99.90;;;;;;4266628;27;20046;-57
2024/03/05 02:19:31;;;;;;;0.52;0.22;;;8.10;99.90;;;;;;4266534;27;20134;-57
2024/03/05 02:21:35;;;;;;;0.30;0.30;;;8.10;99.90;;;;;;4266576;27;20047;-58
2024/03/05 02:23:37;;;;;;;0.22;0.20;;;8.10;99.90;;;;;;4266215;27;20085;-57
2024/03/05 02:25:40;;;;;;;0.20;0.20;;;8.10;99.90;;;;;;4265779;27;20070;-58
2024/03/05 02:27:42;;;;;;;0.30;0.30;;;8.10;99.90;;;;;;4266472;27;20043;-56
2024/03/05 02:29:44;;;;;;;0.20;0.20;;;8.20;99.90;;;;;;4266679;27;20066;-56
2024/03/05 02:31:47;;;;;;;0.55;0.43;;;8.20;99.90;;;;;;4266441;27;20046;-56
2024/03/05 02:33:53;;;;;;;1.75;0.90;;;8.20;99.90;;;;;;4266425;27;20126;-57
2024/03/05 02:35:58;;;;;;;0.40;0.40;;;8.20;99.90;;;;;;4266318;27;20047;-57
2024/03/05 02:38:05;;;;;;;0.20;0.20;;;8.20;99.90;;;;;;4267207;27;20074;-57
2024/03/05 02:40:09;;;;;;;1.30;0.90;;;8.10;99.90;;;;;;4266641;27;20071;-58
2024/03/05 02:42:11;;;;;;;2.83;1.10;;;8.20;99.90;;;;;;4266648;27;20088;-55
2024/03/05 02:44:13;;;;;;;0.10;0.10;;;8.20;99.90;;;;;;4266602;27;20505;-55
2024/03/05 02:46:15;;;;;;;0.32;0.25;;;8.20;99.90;;;;;;4266366;27;20065;-57
2024/03/05 02:48:18;;;;;;;0.38;0.20;;;8.20;99.90;;;;;;4268114;27;20087;-56
2024/03/05 02:50:20;;;;;;;0.60;0.60;;;8.20;99.90;;;;;;4267422;27;20481;-56
2024/03/05 02:52:22;;;;;;;0.60;0.20;;;8.20;99.90;;;;;;4266913;27;20050;-57
2024/03/05 02:54:28;;;;;;;3.30;1.05;;;8.20;99.90;;;;;;4267110;27;20046;-61
2024/03/05 02:56:30;;;;;;;0.95;0.40;;;8.20;99.90;;;;;;4267491;27;20469;-57
2024/03/05 02:58:32;;;;;;;1.83;0.43;;;8.20;99.90;;;;;;4267584;27;20087;-62
2024/03/05 03:00:34;;;;;;;0.55;0.15;;;8.20;99.90;;;;;;4266030;27;20050;-56
2024/03/05 03:02:37;;;;;;;0.77;0.38;;;8.20;99.90;;;;;;4265868;27;20035;-55
2024/03/05 03:04:39;;;;;;;1.95;0.80;;;8.20;99.90;;;;;;4265668;27;20043;-58
2024/03/05 03:06:43;;;;;;;0.68;0.30;;;8.20;99.90;;;;;;4265679;27;20045;-57
2024/03/05 03:08:46;;;;;;;0.35;0.28;;;8.20;99.90;;;;;;4265327;27;20432;-57
2024/03/05 03:10:50;;;;;;;0.30;0.20;;;8.20;99.90;;;;;;4265608;27;20053;-57
2024/03/05 03:12:52;;;;;;;0.60;0.60;;;8.20;99.90;;;;;;4247351;27;20092;-57
2024/03/05 03:14:54;;;;;;;0.45;0.45;;;8.20;99.90;;;;;;4265233;27;20058;-58
2024/03/05 03:16:57;;;;;;;0.30;0.30;;;8.20;99.90;;;;;;4265641;27;20048;-58
2024/03/05 03:18:59;;;;;;;0.55;0.38;;;8.20;99.90;;;;;;4265459;27;20062;-57
2024/03/05 03:21:03;;;;;;;0.40;0.25;;;8.20;99.90;;;;;;4247335;27;20142;-57
2024/03/05 03:23:05;;;;;;;0.32;0.20;;;8.20;99.90;;;;;;4265105;27;20066;-57
2024/03/05 03:25:09;;;;;;;0.70;0.43;;;8.20;99.90;;;;;;4265155;27;20042;-54
2024/03/05 03:27:12;;;;;;;1.67;0.95;;;8.20;99.90;;;;;;4265524;27;20062;-56
2024/03/05 03:29:15;;;;;;;0.75;0.60;;;8.20;99.90;;;;;;4265957;27;20478;-57
2024/03/05 03:31:17;;;;;;;0.35;0.30;;;8.10;99.90;;;;;;4265583;27;20371;-58
2024/03/05 03:33:20;;;;;;;0.55;0.50;;;8.10;99.90;;;;;;4265321;27;20039;-57
2024/03/05 03:35:23;;;;;;;0.30;0.30;;;8.10;99.90;;;;;;4265498;27;20420;-57
2024/03/05 03:37:28;;;;;;;2.15;0.45;;;8.10;99.90;;;;;;4265253;27;20125;-57
2024/03/05 03:39:30;;;;;;;0.40;0.38;;;8.20;99.90;;;;;;4269422;27;20129;-55
2024/03/05 03:41:32;;;;;;;0.85;0.38;;;8.30;99.90;;;;;;4269158;27;20122;-57
2024/03/05 03:43:35;;;;;;;0.22;0.22;;;8.20;99.90;;;;;;4268624;27;20043;-60
2024/03/05 03:45:37;;;;;;;0.75;0.30;;;8.20;99.90;;;;;;4268944;27;20238;-57
2024/03/05 03:47:40;;;;;;;2.35;0.73;;;8.20;99.90;;;;;;4269021;27;20043;-57
2024/03/05 03:49:47;;;;;;;0.30;0.30;;;8.20;99.90;;;;;;4268702;27;20045;-55
2024/03/05 03:51:50;;;;;;;1.63;0.32;;;8.20;99.90;;;;;;4268591;27;20059;-57
2024/03/05 03:53:52;;;;;;;0.77;0.30;;;8.20;99.90;;;;;;4268642;27;20114;-56
2024/03/05 03:55:54;;;;;;;0.65;0.47;;;8.20;99.90;;;;;;4268669;27;20410;-57
2024/03/05 03:57:57;;;;;;;0.55;0.30;;;8.20;99.90;;;;;;4268425;27;20067;-58
2024/03/05 04:00:00;;;;;;;3.10;0.90;;;8.10;99.90;;;;;;4268663;27;20104;-57
2024/03/05 04:02:03;;;;;;;0.50;0.32;;;8.20;99.90;;;;;;4268767;27;20080;-57
2024/03/05 04:04:05;;;;;;;1.17;0.47;;;8.20;99.90;;;;;;4268789;27;20045;-56
2024/03/05 04:06:08;;;;;;;0.63;0.20;;;8.20;99.90;;;;;;4268002;27;20233;-58
2024/03/05 04:08:11;;;;;;;2.22;0.68;;;8.20;99.90;;;;;;4268850;27;20447;-55
2024/03/05 04:10:13;;;;;;;0.40;0.20;;;8.30;99.90;;;;;;4268537;27;20050;-54
2024/03/05 04:12:15;;;;;;;0.75;0.52;;;8.30;99.90;;;;;;4268583;27;20049;-55
2024/03/05 04:14:17;;;;;;;3.53;2.15;;;8.20;99.90;;;;;;4269603;27;20103;-57
2024/03/05 04:16:21;;;;;;;4.90;2.17;;;8.20;99.90;;;;;;4268757;27;20047;-56
2024/03/05 04:18:23;;;;;;;0.95;0.45;;;8.30;99.90;;;;;;4250227;27;20043;-58
2024/03/05 04:20:26;;;;;;;3.45;0.88;;;8.20;99.90;;;;;;4268486;27;20047;-55
2024/03/05 04:22:29;;;;;;;1.42;0.90;;;8.20;99.90;;;;;;4268543;27;20048;-57
2024/03/05 04:24:31;;;;;;;1.33;0.45;;;8.30;99.90;;;;;;4268578;27;20091;-55
2024/03/05 04:26:37;;;;;;;3.53;0.80;;;8.30;99.90;;;;;;4268741;27;20442;-57
2024/03/05 04:28:48;;;;;;;2.90;1.05;;;8.20;99.90;;;;;;4250166;27;20098;-57
2024/03/05 04:30:52;;;;;;;0.35;0.20;;;8.20;99.90;;;;;;4268750;27;20046;-56
2024/03/05 04:33:03;;;;;;;1.40;0.80;;;8.30;99.90;;;;;;4268672;27;20050;-56
2024/03/05 04:35:11;;;;;;;2.45;0.73;;;8.30;99.90;;;;;;4267927;27;20045;-56
2024/03/05 04:37:13;;;;;;;0.43;0.28;;;8.20;99.90;;;;;;4268111;27;20046;-56
2024/03/05 04:39:15;;;;;;;1.35;0.65;;;8.20;99.90;;;;;;4267944;27;20473;-55
2024/03/05 04:41:18;;;;;;;0.75;0.20;;;8.20;99.90;;;;;;4268078;27;20050;-57
2024/03/05 04:43:20;;;;;;;0.93;0.93;;;8.30;99.90;;;;;;4267994;27;20062;-57
2024/03/05 04:45:22;;;;;;;0.85;0.50;;;8.30;99.90;;;;;;4267951;27;20042;-58
2024/03/05 04:47:26;;;;;;;0.20;0.20;;;8.30;99.90;;;;;;4268023;27;20075;-56
2024/03/05 04:49:29;;;;;;;1.40;1.05;;;8.30;99.90;;;;;;4267563;27;20485;-57
2024/03/05 04:51:31;;;;;;;0.88;0.70;;;8.30;99.90;;;;;;4267728;27;20065;-57
2024/03/05 04:53:36;;;;;;;0.45;0.30;;;8.30;99.90;;;;;;4267922;27;20480;-57
2024/03/05 04:55:38;;;;;;;0.43;0.30;;;8.30;99.90;;;;;;4267821;27;20057;-57
2024/03/05 04:57:43;;;;;;;6.13;1.17;;;8.30;99.90;;;;;;4267863;27;20499;-53
2024/03/05 04:59:45;;;;;;;1.08;0.50;;;8.30;99.90;;;;;;4267900;27;20054;-55
2024/03/05 05:01:50;;;;;;;;;;;8.30;99.90;;;;;;4250398;27;20047;-58
2024/03/05 05:03:52;;;;;;;18.15;3.30;;;8.20;99.90;;;;;;4267508;27;19919;-57
2024/03/05 05:05:55;;;;;;;0.40;0.20;;;8.20;99.90;;;;;;4267688;27;20390;-59
2024/03/05 05:08:00;;;;;;;0.93;0.40;;;8.10;99.90;;;;;;4267562;27;20481;-58
2024/03/05 05:10:02;;;;;;;0.30;0.30;;;8.20;99.90;;;;;;4267400;27;20081;-57
2024/03/05 05:12:05;;;;;;;0.95;0.73;;;8.10;99.90;;;;;;4267527;27;20047;-57
2024/03/05 05:14:07;;;;;;;2.15;0.40;;;8.10;99.90;;;;;;4267670;27;20492;-57
2024/03/05 05:16:11;;;;;;;1.27;0.77;;;8.00;99.90;;;;;;4267918;27;20043;-57
2024/03/05 05:18:14;;;;;;;1.27;0.45;;;8.00;99.90;;;;;;4267286;27;20043;-57
2024/03/05 05:20:18;;;;;;;5.25;0.73;;;8.00;99.90;;;;;;4267134;27;20051;-58
2024/03/05 05:22:21;;;;;;;0.60;0.60;;;8.00;99.90;;;;;;4267713;27;20050;-57
2024/03/05 05:24:24;;;;;;;1.00;0.50;;;8.10;99.90;;;;;;4267197;27;20043;-57
2024/03/05 05:26:26;;;;;;;0.60;0.50;;;8.10;99.90;;;;;;4266397;27;20464;-55
2024/03/05 05:28:28;;;;;;;0.30;0.20;;;8.10;99.90;;;;;;4268426;27;20131;-55
2024/03/05 05:30:30;;;;;;;0.40;0.38;;;8.10;99.90;;;;;;4267921;27;20070;-55
2024/03/05 05:32:34;;;;;;;3.13;0.50;;;8.00;99.90;;;;;;4249613;27;20092;-58
2024/03/05 05:34:37;;;;;;;0.47;0.20;;;8.10;99.90;;;;;;4267620;27;20454;-55
2024/03/05 05:36:39;;;;;;;0.90;0.30;;;8.10;99.90;;;;;;4267268;27;20110;-55
2024/03/05 05:38:44;;;;;;;0.52;0.30;;;8.20;99.90;;;;;;4267250;27;20067;-54
2024/03/05 05:40:46;;;;;;;0.35;0.20;;;8.10;99.90;;;;;;4266813;27;20043;-55
2024/03/05 05:42:50;;;;;;;0.50;0.50;;;8.20;99.90;;;;;;4266883;27;20091;-55
2024/03/05 05:44:53;;;;;;;0.82;0.38;;;8.20;99.90;;;;;;4266911;27;20038;-55
2024/03/05 05:46:56;;;;;;;0.65;0.20;;;8.20;99.90;;;;;;4266645;27;20488;-55
2024/03/05 05:48:58;;;;;;;1.40;0.20;;;8.10;99.90;;;;;;4266704;27;20110;-54
2024/03/05 05:51:01;;;;;;;0.57;0.30;;;8.20;99.90;;;;;;4266934;27;20456;-55
2024/03/05 05:53:07;;;;;;;3.13;0.32;;;8.10;99.90;;;;;;4266779;27;20046;-55
2024/03/05 05:55:13;;;;;;;2.17;0.55;;;8.20;99.90;;;;;;4266819;27;20047;-55
2024/03/05 05:57:17;;;;;;;2.70;0.63;;;8.20;99.90;;;;;;4266787;27;20123;-55
2024/03/05 05:59:20;;;;;;;1.33;0.82;;;8.20;99.90;;;;;;4267062;27;20122;-55
2024/03/05 06:01:22;;;;;;;2.67;0.63;;;8.20;99.90;;;;;;4266274;27;20047;-56
2024/03/05 06:03:24;;;;;;;1.63;0.85;;;8.20;99.90;;;;;;4266711;27;20042;-55
2024/03/05 06:05:30;;;;;;;2.50;0.75;;;8.30;99.90;;;;;;4266765;27;20563;-55
2024/03/05 06:07:34;;;;;;;1.55;0.95;;;8.30;99.90;;;;;;4266579;27;20095;-55
2024/03/05 06:09:40;;;;;;;0.30;0.30;;;8.30;99.90;;;;;;4248165;27;20502;-55
2024/03/05 06:11:44;;;;;;;0.35;0.30;;;8.20;99.90;;;;;;4266631;27;20039;-54
2024/03/05 06:13:46;;;;;;;0.15;0.15;;;8.20;99.90;;;;;;4248452;27;20100;-54
2024/03/05 06:15:49;;;;;;;0.20;0.20;;;8.30;99.90;;;;;;4266775;27;20043;-54
2024/03/05 06:17:52;;;;;;;1.15;1.05;;;8.20;99.90;;;;;;4266681;27;20050;-55
2024/03/05 06:19:54;;;;;;;1.23;0.63;;;8.20;99.90;;;;;;4266735;27;20141;-60
2024/03/05 06:22:00;;;;;;;1.45;0.63;;;8.20;99.90;;;;;;4267669;27;20141;-61
2024/03/05 06:24:02;;;;;;;1.60;0.40;;;8.10;99.90;;;;;;4268928;27;20069;-56
2024/03/05 06:26:05;;;;;;;0.82;0.40;;;8.10;99.90;;;;;;4266762;27;20117;-55
2024/03/05 06:28:09;;;;;;;0.50;0.30;;;8.10;99.90;;;;;;4266705;27;20043;-55
2024/03/05 06:30:15;;;;;;;3.80;0.63;;;8.00;99.90;;;;;;4266537;27;20046;-57
2024/03/05 06:32:17;;;;;;;1.00;0.40;;;8.00;99.90;;;;;;4265946;27;20129;-56
2024/03/05 06:34:19;;;;;;;0.77;0.28;;;7.90;99.90;;;;;;4247700;27;20039;-56
2024/03/05 06:36:22;;;;;;;2.15;0.43;;;7.90;99.90;;;;;;4247481;27;20047;-58
2024/03/05 06:38:24;;;;;;;0.47;0.35;;;7.90;99.90;;;;;;4266019;27;20071;-57
2024/03/05 06:40:26;;;;;;;0.73;0.40;;;7.90;99.90;;;;;;4266075;27;20053;-57
2024/03/05 06:42:30;;;;;;;0.35;0.30;;;7.90;99.90;;;;;;4266053;27;20042;-57
2024/03/05 06:44:36;;;;;;;0.30;0.30;;;7.90;99.90;;;;;;4266000;27;20043;-56
2024/03/05 06:46:41;;;;;;;0.40;0.40;;;7.80;99.90;;;;;;4265704;27;20408;-57
2024/03/05 06:48:47;;;;;;;0.50;0.50;;;7.90;99.90;;;;;;4265853;27;20442;-60
2024/03/05 06:50:57;;;;;;;1.38;0.60;;;7.90;99.90;;;;;;4266018;27;20066;-57
2024/03/05 06:57:42;;;;;;;2.17;1.27;;;7.90;99.90;;;;;;4265780;27;20078;-56
2024/03/05 06:59:45;;;;;;;0.10;0.10;;;7.90;99.90;;;;;;4265626;27;20043;-56
2024/03/05 07:01:47;;;;;;;2.88;0.40;;;8.00;99.90;;;;;;4265427;27;20046;-56
2024/03/05 07:03:49;;;;;;;0.63;0.30;;;8.00;99.90;;;;;;4265849;27;20038;-56
2024/03/05 07:05:51;;;;;;;0.65;0.50;;;8.00;99.90;;;;;;4265563;27;20126;-57
2024/03/05 07:07:53;;;;;;;0.57;0.50;;;8.10;99.90;;;;;;4265865;27;20065;-56
2024/03/05 07:09:57;;;;;;;1.25;0.20;;;8.10;99.90;;;;;;4264693;27;20461;-57
2024/03/05 07:11:59;;;;;;;1.35;0.55;;;8.10;99.90;;;;;;4265364;27;20056;-57
2024/03/05 07:14:01;;;;;;;0.40;0.40;;;8.20;99.90;;;;;;4264757;27;20046;-57
2024/03/05 07:16:07;;;;;;;0.40;0.22;;;8.20;99.90;;;;;;4265803;27;20042;-62
2024/03/05 07:18:09;;;;;;;1.63;0.43;;;8.20;99.90;;;;;;4265505;27;20047;-56
2024/03/05 07:20:19;;;;;;;2.08;1.08;;;8.20;99.90;;;;;;4265350;27;20086;-56
2024/03/05 07:22:21;;;;;;;2.92;1.65;;;8.20;99.90;;;;;;4265637;27;20039;-56
2024/03/05 07:24:23;;;;;;;0.38;0.35;;;8.20;99.90;;;;;;4265380;27;20049;-56
2024/03/05 07:26:26;;;;;;;0.63;0.63;;;8.30;99.90;;;;;;4265374;27;20038;-56
2024/03/05 07:28:28;;;;;;;1.90;0.85;;;8.30;99.90;;;;;;4247050;27;20058;-57
2024/03/05 07:30:30;;;;;;;1.45;0.73;;;8.30;99.90;;;;;;4265821;27;20047;-56
2024/03/05 07:32:33;;;;;;;5.43;1.10;;;8.40;99.90;;;;;;4265945;27;20047;-57
2024/03/05 07:34:36;;;;;;;6.93;0.68;;;8.30;99.90;;;;;;4265672;27;20046;-56
2024/03/05 07:36:39;;;;;;;1.90;0.40;;;8.30;99.90;;;;;;4266211;27;20050;-59
2024/03/05 07:38:42;;;;;;;1.13;0.50;;;8.40;99.90;;;;;;4266873;27;20039;-57
2024/03/05 07:40:47;;;;;;;0.90;0.90;;;8.40;99.90;;;;;;4266134;27;20092;-59
2024/03/05 07:42:53;;;;;;;0.65;0.30;;;8.50;99.90;;;;;;4265831;27;20042;-58
2024/03/05 07:44:56;;;;;;;0.55;0.20;;;8.50;99.90;;;;;;4264706;27;20054;-56
2024/03/05 07:46:58;;;;;;;0.32;0.20;;;8.60;99.90;;;;;;4266217;27;20054;-58
2024/03/05 07:49:02;;;;;;;1.75;1.30;;;8.60;99.90;;;;;;4265369;27;20064;-54
2024/03/05 07:51:04;;;;;;;0.40;0.30;;;8.60;99.90;;;;;;4265504;27;20039;-56
2024/03/05 07:53:07;;;;;;;0.63;0.50;;;8.70;99.90;;;;;;4265474;27;20455;-55
2024/03/05 07:55:13;;;;;;;7.88;2.17;;;8.80;99.90;;;;;;4265457;27;20106;-56
2024/03/05 07:57:15;;;;;;;3.38;0.88;;;8.90;99.90;;;;;;4265311;27;20481;-56
2024/03/05 07:59:17;;;;;;;0.93;0.40;;;9.00;99.90;;;;;;4264989;27;20049;-56
2024/03/05 08:01:19;;;;;;;0.57;0.57;;;9.00;99.90;;;;;;4265319;27;20050;-55
2024/03/05 08:03:22;;;;;;;12.18;0.88;;;9.00;99.90;;;;;;4265158;27;20092;-56
2024/03/05 08:05:25;;;;;;;0.60;0.20;;;9.00;99.90;;;;;;4265600;27;20053;-56
2024/03/05 08:07:27;;;;;;;0.38;0.20;;;9.00;99.90;;;;;;4265768;27;20095;-56
2024/03/05 08:09:30;;;;;;;1.70;1.05;;;9.00;99.90;;;;;;4265946;27;20417;-58
2024/03/05 08:11:32;;;;;;;0.52;0.20;;;9.00;99.90;;;;;;4265803;27;20050;-60
2024/03/05 08:13:35;;;;;;;0.65;0.50;;;9.10;99.90;;;;;;4266181;27;20467;-56
2024/03/05 08:15:38;;;;;;;0.60;0.43;;;9.00;99.90;;;;;;4266997;27;20043;-59
2024/03/05 08:17:41;;;;;;;0.10;0.10;;;9.00;99.90;;;;;;4265766;27;20046;-61
2024/03/05 08:19:43;;;;;;;0.35;0.28;;;9.00;99.90;;;;;;4265266;27;20103;-56
2024/03/05 08:21:46;;;;;;;0.52;0.15;;;9.00;99.90;;;;;;4265704;27;20042;-56
2024/03/05 08:23:52;;;;;;;4.45;0.95;;;9.00;99.90;;;;;;4265834;27;20539;-62
2024/03/05 08:25:55;;;;;;;3.70;0.77;;;9.10;99.90;;;;;;4268446;27;20042;-56
2024/03/05 08:27:58;;;;;;;3.03;1.02;;;9.00;99.90;;;;;;4268088;27;20500;-57
2024/03/05 08:30:00;;;;;;;0.40;0.40;;;9.10;99.90;;;;;;4268325;27;20067;-57
2024/03/05 08:32:03;;;;;;;0.90;0.35;;;9.10;99.90;;;;;;4268137;27;20097;-55
2024/03/05 08:34:05;;;;;;;0.50;0.35;;;9.10;99.90;;;;;;4267929;27;20043;-56
2024/03/05 08:36:08;;;;;;;1.10;0.73;;;9.10;99.90;;;;;;4268548;27;20046;-56
2024/03/05 08:38:13;;;;;;;1.13;0.10;;;9.20;99.90;;;;;;4267909;27;20085;-57
2024/03/05 08:40:15;;;;;;;;;;;9.30;99.90;;;;;;4268735;27;20042;-56
2024/03/05 08:42:18;;;;;;;0.15;0.10;;;9.30;99.90;;;;;;4267700;27;19997;-57
2024/03/05 08:44:20;;;;;;;0.52;0.35;;;9.40;99.90;;;;;;4268160;27;20485;-56
2024/03/05 08:46:22;;;;;;;1.45;0.70;;;9.30;99.90;;;;;;4268352;27;20038;-61
2024/03/05 08:48:24;;;;;;;0.60;0.22;;;9.30;99.90;;;;;;4268684;27;20561;-56
2024/03/05 08:50:28;;;;;;;0.30;0.30;;;9.20;99.90;;;;;;4268542;27;20046;-56
2024/03/05 08:52:31;;;;;;;1.33;0.30;;;9.20;99.90;;;;;;4267737;27;20081;-57
2024/03/05 08:54:35;;;;;;;0.10;0.10;;;9.20;99.90;;;;;;4267890;27;20099;-56
2024/03/05 08:56:37;;;;;;;0.43;0.28;;;9.20;99.90;;;;;;4267677;27;20042;-56
2024/03/05 08:58:40;;;;;;;0.80;0.15;;;9.20;99.90;;;;;;4268026;27;20053;-56
2024/03/05 09:00:42;;;;;;;0.73;0.28;;;9.20;99.90;;;;;;4268489;27;20119;-55
2024/03/05 09:02:45;;;;;;;0.60;0.60;;;9.20;99.90;;;;;;4268776;27;20042;-57
2024/03/05 09:04:47;;;;;;;1.83;0.28;;;9.20;99.90;;;;;;4268049;27;20450;-58
2024/03/05 09:06:50;;;;;;;1.77;0.88;;;9.20;99.90;;;;;;4267424;27;20039;-57
2024/03/05 09:08:52;;;;;;;0.88;0.57;;;9.20;99.90;;;;;;4267523;27;20082;-56
2024/03/05 09:10:56;;;;;;;0.43;0.30;;;9.20;99.90;;;;;;4267166;27;20043;-56
2024/03/05 09:12:59;;;;;;;0.52;0.52;;;9.20;99.90;;;;;;4249311;27;20071;-56
2024/03/05 09:15:02;;;;;;;2.65;0.30;;;9.20;99.90;;;;;;4267712;27;20045;-57
2024/03/05 09:17:05;;;;;;;1.65;1.15;;;9.20;99.90;;;;;;4267336;27;20043;-56
2024/03/05 09:19:07;;;;;;;0.80;0.20;;;9.20;99.90;;;;;;4267134;27;20054;-56
2024/03/05 09:21:11;;;;;;;0.68;0.10;;;9.20;99.90;;;;;;4267471;27;20409;-56
2024/03/05 09:23:14;;;;;;;1.17;0.75;;;9.20;99.90;;;;;;4267452;27;20043;-55
2024/03/05 09:25:17;;;;;;;0.13;0.10;;;9.10;99.90;;;;;;4266977;27;20046;-56
2024/03/05 09:27:20;;;;;;;0.10;0.10;;;9.00;99.90;;;;;;4248970;27;20489;-55
2024/03/05 09:29:22;;;;;;;0.63;0.20;;;8.90;99.90;;;;;;4267700;27;20452;-57
2024/03/05 09:31:25;;;;;;;0.10;0.10;;;8.90;99.90;;;;;;4267667;27;20412;-56
2024/03/05 09:33:27;;;;;;;0.00;0.00;;;8.90;99.90;;;;;;4267229;27;20122;-56
2024/03/05 09:35:29;;;;;;;1.60;0.30;;;8.90;99.90;;;;;;4266430;27;20405;-55
2024/03/05 09:37:31;;;;;;;0.47;0.15;;;8.90;99.90;;;;;;4267126;27;20095;-55
2024/03/05 09:39:35;;;;;;;0.80;0.10;;;9.00;99.90;;;;;;4266654;27;20057;-54
2024/03/05 09:41:42;;;;;;;0.20;0.20;;;9.00;99.90;;;;;;4267258;27;20074;-54
2024/03/05 09:43:47;;;;;;;0.28;0.20;;;9.10;99.90;;;;;;4267045;27;20048;-55
2024/03/05 09:45:51;;;;;;;1.73;0.82;;;9.10;99.90;;;;;;4266999;27;20051;-57
2024/03/05 09:47:53;;;;;;;0.65;0.52;;;9.20;99.90;;;;;;4267004;27;20042;-58
2024/03/05 09:49:57;;;;;;;0.90;0.70;;;9.20;99.90;;;;;;4266577;27;20481;-58
2024/03/05 09:51:59;;;;;;;0.90;0.68;;;9.30;99.90;;;;;;4266859;27;20049;-59
2024/03/05 09:54:02;;;;;;;0.57;0.30;;;9.30;99.90;;;;;;4266444;27;20122;-57
2024/03/05 09:56:06;;;;;;;1.02;0.47;;;9.40;99.90;;;;;;4266655;27;20042;-57
2024/03/05 09:58:10;;;;;;;2.35;0.68;;;9.30;99.90;;;;;;4266457;27;20050;-57
2024/03/05 10:00:17;;;;;;;2.15;0.80;;;9.30;99.90;;;;;;4266773;27;20066;-57
2024/03/05 10:02:22;;;;;;;0.88;0.88;;;9.40;99.90;;;;;;4266525;27;20045;-59
2024/03/05 10:04:31;;;;;;;0.30;0.30;;;9.40;99.50;;;;;;4266828;27;20125;-57
2024/03/05 10:06:33;;;;;;;;;;;9.40;99.90;;;;;;4267027;27;20121;-57
2024/03/05 10:08:35;;;;;;;0.55;0.20;;;9.40;99.90;;;;;;4266750;27;20022;-61
2024/03/05 10:10:38;;;;;;;0.55;0.30;;;9.40;99.90;;;;;;4267631;27;20062;-57
2024/03/05 10:12:43;;;;;;;0.10;0.03;;;9.40;99.90;;;;;;4266793;27;20046;-57
2024/03/05 10:14:45;;;;;;;0.00;0.00;;;9.40;99.90;;;;;;4266866;27;20042;-63
2024/03/05 10:16:59;;;;;;;0.35;0.20;;;9.40;99.90;;;;;;4267039;27;20122;-58
2024/03/05 10:19:11;;;;;;;2.55;0.20;;;9.50;99.90;;;;;;4266782;27;20150;-57
2024/03/05 10:21:17;;;;;;;0.25;0.10;;;9.40;99.90;;;;;;4266483;27;20047;-58
2024/03/05 10:23:19;;;;;;;0.80;0.30;;;9.40;99.90;;;;;;4266181;27;20122;-56
2024/03/05 10:25:24;;;;;;;0.43;0.10;;;9.40;99.90;;;;;;4266401;27;20070;-56
2024/03/05 10:27:27;;;;;;;;;;;9.50;99.90;;;;;;4267023;27;20047;-57
2024/03/05 10:29:33;;;;;;;0.25;0.25;;;9.50;99.60;;;;;;4266226;27;20013;-57
2024/03/05 10:31:39;;;;;;;3.20;1.20;;;9.40;99.50;;;;;;4266165;27;20042;-57
2024/03/05 10:33:42;;;;;;;0.22;0.10;;;9.40;99.70;;;;;;4266220;27;20038;-58
2024/03/05 10:35:50;;;;;;;0.30;0.10;;;9.40;99.60;;;;;;4266156;27;20046;-60
2024/03/05 10:38:00;;;;;;;2.15;0.20;;;9.60;99.60;;;;;;4265547;27;20042;-57
2024/03/05 10:40:08;;;;;;;0.43;0.43;;;9.60;99.30;;;;;;4266177;27;20046;-57
2024/03/05 10:42:11;;;;;;;0.30;0.20;;;9.60;99.90;;;;;;4266319;27;20042;-58
2024/03/05 10:44:15;;;;;;;0.40;0.10;;;9.50;99.40;;;;;;4265908;27;20046;-57
2024/03/05 10:46:19;;;;;;;0.30;0.30;;;9.40;99.50;;;;;;4265944;27;20087;-57
2024/03/05 10:48:23;;;;;;;0.30;0.13;;;9.30;99.90;;;;;;4265902;27;20054;-57
2024/03/05 10:50:28;;;;;;;0.10;0.10;;;9.30;99.60;;;;;;4265887;27;20039;-58
2024/03/05 10:52:33;;;;;;;0.28;0.10;;;9.30;99.80;;;;;;4247340;27;20047;-57
2024/03/05 10:54:37;;;;;;;0.13;0.10;;;9.30;99.40;;;;;;4266024;27;20405;-57